sensor_id;sensor_type;location;lat;lon;timestamp;P1;durP1;ratioP1;P2;durP2;ratioP2
15181;SDS011;7692;50.602;8.692;2023-11-18T00:00:23;2.90;;;2.90;;
15181;SDS011;7692;50.602;8.692;2023-11-18T00:02:51;2.83;;;2.83;;
15181;SDS011;7692;50.602;8.692;2023-11-18T00:05:20;3.00;;;3.00;;
15181;SDS011;7692;50.602;8.692;2023-11-18T00:07:54;3.00;;;3.00;;
15181;SDS011;7692;50.602;8.692;2023-11-18T00:10:22;2.90;;;2.90;;
15181;SDS011;7692;50.602;8.692;2023-11-18T00:12:51;3.30;;;3.20;;
15181;SDS011;7692;50.602;8.692;2023-11-18T00:15:20;3.30;;;3.20;;
15181;SDS011;7692;50.602;8.692;2023-11-18T00:17:48;2.90;;;2.90;;
15181;SDS011;7692;50.602;8.692;2023-11-18T00:20:17;3.27;;;3.17;;
15181;SDS011;7692;50.602;8.692;2023-11-18T00:22:46;2.90;;;2.90;;
15181;SDS011;7692;50.602;8.692;2023-11-18T00:25:17;2.90;;;2.90;;
15181;SDS011;7692;50.602;8.692;2023-11-18T00:27:45;2.70;;;2.70;;
15181;SDS011;7692;50.602;8.692;2023-11-18T00:30:14;2.80;;;2.80;;
15181;SDS011;7692;50.602;8.692;2023-11-18T00:32:43;3.30;;;3.20;;
15181;SDS011;7692;50.602;8.692;2023-11-18T00:35:12;2.70;;;2.70;;
15181;SDS011;7692;50.602;8.692;2023-11-18T00:37:41;2.90;;;2.90;;
15181;SDS011;7692;50.602;8.692;2023-11-18T00:40:10;3.00;;;3.00;;
15181;SDS011;7692;50.602;8.692;2023-11-18T00:42:40;2.80;;;2.80;;
15181;SDS011;7692;50.602;8.692;2023-11-18T00:45:08;2.63;;;2.63;;
15181;SDS011;7692;50.602;8.692;2023-11-18T00:47:39;2.80;;;2.80;;
15181;SDS011;7692;50.602;8.692;2023-11-18T00:50:08;3.03;;;3.03;;
15181;SDS011;7692;50.602;8.692;2023-11-18T00:52:37;2.60;;;2.60;;
15181;SDS011;7692;50.602;8.692;2023-11-18T00:55:08;2.60;;;2.60;;
15181;SDS011;7692;50.602;8.692;2023-11-18T00:57:37;2.80;;;2.80;;
15181;SDS011;7692;50.602;8.692;2023-11-18T01:00:11;2.70;;;2.70;;
15181;SDS011;7692;50.602;8.692;2023-11-18T01:02:42;2.80;;;2.80;;
15181;SDS011;7692;50.602;8.692;2023-11-18T01:05:13;3.00;;;3.00;;
15181;SDS011;7692;50.602;8.692;2023-11-18T01:07:41;2.80;;;2.80;;
15181;SDS011;7692;50.602;8.692;2023-11-18T01:10:11;2.80;;;2.80;;
15181;SDS011;7692;50.602;8.692;2023-11-18T01:12:40;2.63;;;2.63;;
15181;SDS011;7692;50.602;8.692;2023-11-18T01:15:12;2.70;;;2.70;;
15181;SDS011;7692;50.602;8.692;2023-11-18T01:17:41;3.50;;;3.40;;
15181;SDS011;7692;50.602;8.692;2023-11-18T01:20:11;2.80;;;2.80;;
15181;SDS011;7692;50.602;8.692;2023-11-18T01:22:40;2.60;;;2.60;;
15181;SDS011;7692;50.602;8.692;2023-11-18T01:25:12;2.80;;;2.80;;
15181;SDS011;7692;50.602;8.692;2023-11-18T01:27:40;2.60;;;2.60;;
15181;SDS011;7692;50.602;8.692;2023-11-18T01:30:09;3.00;;;3.00;;
15181;SDS011;7692;50.602;8.692;2023-11-18T01:32:39;2.70;;;2.70;;
15181;SDS011;7692;50.602;8.692;2023-11-18T01:35:08;2.67;;;2.67;;
15181;SDS011;7692;50.602;8.692;2023-11-18T01:37:38;2.60;;;2.60;;
15181;SDS011;7692;50.602;8.692;2023-11-18T01:40:07;2.73;;;2.73;;
15181;SDS011;7692;50.602;8.692;2023-11-18T01:42:38;2.70;;;2.70;;
15181;SDS011;7692;50.602;8.692;2023-11-18T01:45:07;2.50;;;2.50;;
15181;SDS011;7692;50.602;8.692;2023-11-18T01:47:40;2.60;;;2.60;;
15181;SDS011;7692;50.602;8.692;2023-11-18T01:50:09;2.70;;;2.70;;
15181;SDS011;7692;50.602;8.692;2023-11-18T01:52:38;2.50;;;2.50;;
15181;SDS011;7692;50.602;8.692;2023-11-18T01:55:12;2.57;;;2.57;;
15181;SDS011;7692;50.602;8.692;2023-11-18T01:57:41;2.70;;;2.70;;
15181;SDS011;7692;50.602;8.692;2023-11-18T02:00:11;2.60;;;2.60;;
15181;SDS011;7692;50.602;8.692;2023-11-18T02:02:46;2.70;;;2.70;;
15181;SDS011;7692;50.602;8.692;2023-11-18T02:05:14;2.60;;;2.60;;
15181;SDS011;7692;50.602;8.692;2023-11-18T02:07:44;2.70;;;2.70;;
15181;SDS011;7692;50.602;8.692;2023-11-18T02:10:13;2.50;;;2.50;;
15181;SDS011;7692;50.602;8.692;2023-11-18T02:12:44;2.63;;;2.63;;
15181;SDS011;7692;50.602;8.692;2023-11-18T02:15:15;2.60;;;2.60;;
15181;SDS011;7692;50.602;8.692;2023-11-18T02:17:45;2.60;;;2.60;;
15181;SDS011;7692;50.602;8.692;2023-11-18T02:20:15;2.77;;;2.77;;
15181;SDS011;7692;50.602;8.692;2023-11-18T02:22:47;2.60;;;2.60;;
15181;SDS011;7692;50.602;8.692;2023-11-18T02:25:16;2.60;;;2.60;;
15181;SDS011;7692;50.602;8.692;2023-11-18T02:27:46;2.50;;;2.50;;
15181;SDS011;7692;50.602;8.692;2023-11-18T02:30:18;2.70;;;2.70;;
15181;SDS011;7692;50.602;8.692;2023-11-18T02:32:51;2.60;;;2.60;;
15181;SDS011;7692;50.602;8.692;2023-11-18T02:35:24;2.50;;;2.50;;
15181;SDS011;7692;50.602;8.692;2023-11-18T02:37:53;2.60;;;2.60;;
15181;SDS011;7692;50.602;8.692;2023-11-18T02:40:24;2.60;;;2.60;;
15181;SDS011;7692;50.602;8.692;2023-11-18T02:42:59;2.60;;;2.60;;
15181;SDS011;7692;50.602;8.692;2023-11-18T02:45:28;2.60;;;2.60;;
15181;SDS011;7692;50.602;8.692;2023-11-18T02:47:58;2.60;;;2.60;;
15181;SDS011;7692;50.602;8.692;2023-11-18T02:50:27;2.60;;;2.60;;
15181;SDS011;7692;50.602;8.692;2023-11-18T02:52:56;2.60;;;2.60;;
15181;SDS011;7692;50.602;8.692;2023-11-18T02:55:25;2.60;;;2.60;;
15181;SDS011;7692;50.602;8.692;2023-11-18T02:57:53;2.70;;;2.70;;
15181;SDS011;7692;50.602;8.692;2023-11-18T03:00:24;2.70;;;2.70;;
15181;SDS011;7692;50.602;8.692;2023-11-18T03:02:54;2.70;;;2.70;;
15181;SDS011;7692;50.602;8.692;2023-11-18T03:05:23;2.77;;;2.77;;
15181;SDS011;7692;50.602;8.692;2023-11-18T03:07:52;2.60;;;2.60;;
15181;SDS011;7692;50.602;8.692;2023-11-18T03:10:24;2.80;;;2.80;;
15181;SDS011;7692;50.602;8.692;2023-11-18T03:12:53;2.70;;;2.70;;
15181;SDS011;7692;50.602;8.692;2023-11-18T03:15:24;2.80;;;2.80;;
15181;SDS011;7692;50.602;8.692;2023-11-18T03:17:53;2.70;;;2.70;;
15181;SDS011;7692;50.602;8.692;2023-11-18T03:20:23;2.50;;;2.50;;
15181;SDS011;7692;50.602;8.692;2023-11-18T03:22:52;2.80;;;2.80;;
15181;SDS011;7692;50.602;8.692;2023-11-18T03:25:21;2.70;;;2.70;;
15181;SDS011;7692;50.602;8.692;2023-11-18T03:27:50;2.90;;;2.90;;
15181;SDS011;7692;50.602;8.692;2023-11-18T03:30:21;2.77;;;2.77;;
15181;SDS011;7692;50.602;8.692;2023-11-18T03:32:50;2.70;;;2.70;;
15181;SDS011;7692;50.602;8.692;2023-11-18T03:35:19;2.80;;;2.80;;
15181;SDS011;7692;50.602;8.692;2023-11-18T03:37:47;2.93;;;2.93;;
15181;SDS011;7692;50.602;8.692;2023-11-18T03:40:17;2.70;;;2.70;;
15181;SDS011;7692;50.602;8.692;2023-11-18T03:42:46;2.80;;;2.80;;
15181;SDS011;7692;50.602;8.692;2023-11-18T03:45:14;2.70;;;2.70;;
15181;SDS011;7692;50.602;8.692;2023-11-18T03:47:44;2.80;;;2.80;;
15181;SDS011;7692;50.602;8.692;2023-11-18T03:50:15;2.63;;;2.63;;
15181;SDS011;7692;50.602;8.692;2023-11-18T03:52:43;2.70;;;2.70;;
15181;SDS011;7692;50.602;8.692;2023-11-18T03:55:12;2.50;;;2.50;;
15181;SDS011;7692;50.602;8.692;2023-11-18T03:57:40;2.50;;;2.50;;
15181;SDS011;7692;50.602;8.692;2023-11-18T04:00:09;2.70;;;2.70;;
15181;SDS011;7692;50.602;8.692;2023-11-18T04:02:41;2.70;;;2.70;;
15181;SDS011;7692;50.602;8.692;2023-11-18T04:05:12;2.60;;;2.60;;
15181;SDS011;7692;50.602;8.692;2023-11-18T04:07:42;2.90;;;2.90;;
15181;SDS011;7692;50.602;8.692;2023-11-18T04:10:11;2.60;;;2.60;;
15181;SDS011;7692;50.602;8.692;2023-11-18T04:12:39;2.70;;;2.70;;
15181;SDS011;7692;50.602;8.692;2023-11-18T04:15:12;2.80;;;2.80;;
15181;SDS011;7692;50.602;8.692;2023-11-18T04:17:41;2.50;;;2.50;;
15181;SDS011;7692;50.602;8.692;2023-11-18T04:20:11;2.50;;;2.50;;
15181;SDS011;7692;50.602;8.692;2023-11-18T04:22:44;2.60;;;2.60;;
15181;SDS011;7692;50.602;8.692;2023-11-18T04:25:13;2.40;;;2.40;;
15181;SDS011;7692;50.602;8.692;2023-11-18T04:27:42;2.70;;;2.70;;
15181;SDS011;7692;50.602;8.692;2023-11-18T04:30:12;2.80;;;2.80;;
15181;SDS011;7692;50.602;8.692;2023-11-18T04:32:41;2.60;;;2.60;;
15181;SDS011;7692;50.602;8.692;2023-11-18T04:35:10;2.50;;;2.50;;
15181;SDS011;7692;50.602;8.692;2023-11-18T04:37:39;2.50;;;2.50;;
15181;SDS011;7692;50.602;8.692;2023-11-18T04:40:11;2.60;;;2.60;;
15181;SDS011;7692;50.602;8.692;2023-11-18T04:42:40;2.77;;;2.77;;
15181;SDS011;7692;50.602;8.692;2023-11-18T04:45:10;2.50;;;2.50;;
15181;SDS011;7692;50.602;8.692;2023-11-18T04:47:41;2.20;;;2.20;;
15181;SDS011;7692;50.602;8.692;2023-11-18T04:50:11;2.70;;;2.70;;
15181;SDS011;7692;50.602;8.692;2023-11-18T04:52:41;2.60;;;2.60;;
15181;SDS011;7692;50.602;8.692;2023-11-18T04:55:11;2.70;;;2.70;;
15181;SDS011;7692;50.602;8.692;2023-11-18T04:57:40;2.60;;;2.60;;
15181;SDS011;7692;50.602;8.692;2023-11-18T05:00:10;2.60;;;2.60;;
15181;SDS011;7692;50.602;8.692;2023-11-18T05:02:38;2.70;;;2.70;;
15181;SDS011;7692;50.602;8.692;2023-11-18T05:05:08;2.53;;;2.53;;
15181;SDS011;7692;50.602;8.692;2023-11-18T05:07:38;2.60;;;2.60;;
15181;SDS011;7692;50.602;8.692;2023-11-18T05:10:07;2.50;;;2.50;;
15181;SDS011;7692;50.602;8.692;2023-11-18T05:12:37;2.90;;;2.90;;
15181;SDS011;7692;50.602;8.692;2023-11-18T05:15:07;2.50;;;2.50;;
15181;SDS011;7692;50.602;8.692;2023-11-18T05:17:35;2.30;;;2.30;;
15181;SDS011;7692;50.602;8.692;2023-11-18T05:20:05;2.50;;;2.50;;
15181;SDS011;7692;50.602;8.692;2023-11-18T05:22:35;2.70;;;2.70;;
15181;SDS011;7692;50.602;8.692;2023-11-18T05:25:04;2.60;;;2.60;;
15181;SDS011;7692;50.602;8.692;2023-11-18T05:27:34;2.60;;;2.60;;
15181;SDS011;7692;50.602;8.692;2023-11-18T05:30:04;2.50;;;2.50;;
15181;SDS011;7692;50.602;8.692;2023-11-18T05:32:33;2.63;;;2.63;;
15181;SDS011;7692;50.602;8.692;2023-11-18T05:35:02;2.70;;;2.70;;
15181;SDS011;7692;50.602;8.692;2023-11-18T05:37:31;2.80;;;2.80;;
15181;SDS011;7692;50.602;8.692;2023-11-18T05:40:05;2.50;;;2.50;;
15181;SDS011;7692;50.602;8.692;2023-11-18T05:42:34;2.60;;;2.60;;
15181;SDS011;7692;50.602;8.692;2023-11-18T05:45:07;2.47;;;2.47;;
15181;SDS011;7692;50.602;8.692;2023-11-18T05:47:44;2.60;;;2.60;;
15181;SDS011;7692;50.602;8.692;2023-11-18T05:50:13;2.50;;;2.50;;
15181;SDS011;7692;50.602;8.692;2023-11-18T05:52:42;2.70;;;2.70;;
15181;SDS011;7692;50.602;8.692;2023-11-18T05:55:11;2.77;;;2.77;;
15181;SDS011;7692;50.602;8.692;2023-11-18T05:57:39;2.80;;;2.80;;
15181;SDS011;7692;50.602;8.692;2023-11-18T06:00:13;2.80;;;2.80;;
15181;SDS011;7692;50.602;8.692;2023-11-18T06:02:52;2.80;;;2.80;;
15181;SDS011;7692;50.602;8.692;2023-11-18T06:05:22;2.70;;;2.70;;
15181;SDS011;7692;50.602;8.692;2023-11-18T06:07:52;2.70;;;2.70;;
15181;SDS011;7692;50.602;8.692;2023-11-18T06:10:21;2.70;;;2.70;;
15181;SDS011;7692;50.602;8.692;2023-11-18T06:12:50;2.70;;;2.70;;
15181;SDS011;7692;50.602;8.692;2023-11-18T06:15:20;2.70;;;2.70;;
15181;SDS011;7692;50.602;8.692;2023-11-18T06:17:49;2.70;;;2.70;;
15181;SDS011;7692;50.602;8.692;2023-11-18T06:20:17;2.80;;;2.80;;
15181;SDS011;7692;50.602;8.692;2023-11-18T06:22:46;2.83;;;2.83;;
15181;SDS011;7692;50.602;8.692;2023-11-18T06:25:15;3.00;;;3.00;;
15181;SDS011;7692;50.602;8.692;2023-11-18T06:27:44;2.90;;;2.90;;
15181;SDS011;7692;50.602;8.692;2023-11-18T06:30:14;2.80;;;2.80;;
15181;SDS011;7692;50.602;8.692;2023-11-18T06:32:44;2.70;;;2.70;;
15181;SDS011;7692;50.602;8.692;2023-11-18T06:35:14;2.70;;;2.70;;
15181;SDS011;7692;50.602;8.692;2023-11-18T06:37:42;2.77;;;2.77;;
15181;SDS011;7692;50.602;8.692;2023-11-18T06:40:11;2.50;;;2.50;;
15181;SDS011;7692;50.602;8.692;2023-11-18T06:42:45;2.70;;;2.70;;
15181;SDS011;7692;50.602;8.692;2023-11-18T06:45:14;2.50;;;2.50;;
15181;SDS011;7692;50.602;8.692;2023-11-18T06:47:44;2.70;;;2.70;;
15181;SDS011;7692;50.602;8.692;2023-11-18T06:50:13;2.80;;;2.80;;
15181;SDS011;7692;50.602;8.692;2023-11-18T06:52:42;2.70;;;2.70;;
15181;SDS011;7692;50.602;8.692;2023-11-18T06:55:14;2.70;;;2.70;;
15181;SDS011;7692;50.602;8.692;2023-11-18T06:57:43;2.60;;;2.60;;
15181;SDS011;7692;50.602;8.692;2023-11-18T07:00:12;2.60;;;2.60;;
15181;SDS011;7692;50.602;8.692;2023-11-18T07:02:41;2.70;;;2.70;;
15181;SDS011;7692;50.602;8.692;2023-11-18T07:05:10;2.60;;;2.60;;
15181;SDS011;7692;50.602;8.692;2023-11-18T07:07:41;2.70;;;2.70;;
15181;SDS011;7692;50.602;8.692;2023-11-18T07:10:10;2.70;;;2.70;;
15181;SDS011;7692;50.602;8.692;2023-11-18T07:12:40;2.60;;;2.60;;
15181;SDS011;7692;50.602;8.692;2023-11-18T07:15:09;2.77;;;2.77;;
15181;SDS011;7692;50.602;8.692;2023-11-18T07:17:38;2.60;;;2.60;;
15181;SDS011;7692;50.602;8.692;2023-11-18T07:20:07;2.60;;;2.60;;
15181;SDS011;7692;50.602;8.692;2023-11-18T07:22:39;2.60;;;2.60;;
15181;SDS011;7692;50.602;8.692;2023-11-18T07:25:08;2.60;;;2.60;;
15181;SDS011;7692;50.602;8.692;2023-11-18T07:27:36;2.60;;;2.60;;
15181;SDS011;7692;50.602;8.692;2023-11-18T07:30:06;2.80;;;2.80;;
15181;SDS011;7692;50.602;8.692;2023-11-18T07:32:37;2.60;;;2.60;;
15181;SDS011;7692;50.602;8.692;2023-11-18T07:35:07;2.70;;;2.70;;
15181;SDS011;7692;50.602;8.692;2023-11-18T07:37:36;2.50;;;2.50;;
15181;SDS011;7692;50.602;8.692;2023-11-18T07:40:07;2.60;;;2.60;;
15181;SDS011;7692;50.602;8.692;2023-11-18T07:42:38;2.70;;;2.70;;
15181;SDS011;7692;50.602;8.692;2023-11-18T07:45:08;2.67;;;2.67;;
15181;SDS011;7692;50.602;8.692;2023-11-18T07:47:45;2.50;;;2.50;;
15181;SDS011;7692;50.602;8.692;2023-11-18T07:50:15;2.60;;;2.60;;
15181;SDS011;7692;50.602;8.692;2023-11-18T07:52:46;2.50;;;2.50;;
15181;SDS011;7692;50.602;8.692;2023-11-18T07:55:16;2.57;;;2.57;;
15181;SDS011;7692;50.602;8.692;2023-11-18T07:57:45;2.50;;;2.50;;
15181;SDS011;7692;50.602;8.692;2023-11-18T08:00:13;2.70;;;2.70;;
15181;SDS011;7692;50.602;8.692;2023-11-18T08:02:42;2.60;;;2.60;;
15181;SDS011;7692;50.602;8.692;2023-11-18T08:05:12;2.70;;;2.70;;
15181;SDS011;7692;50.602;8.692;2023-11-18T08:07:41;2.60;;;2.60;;
15181;SDS011;7692;50.602;8.692;2023-11-18T08:10:11;2.50;;;2.50;;
15181;SDS011;7692;50.602;8.692;2023-11-18T08:12:47;2.40;;;2.40;;
15181;SDS011;7692;50.602;8.692;2023-11-18T08:15:17;2.50;;;2.50;;
15181;SDS011;7692;50.602;8.692;2023-11-18T08:17:46;2.60;;;2.60;;
15181;SDS011;7692;50.602;8.692;2023-11-18T08:20:15;2.67;;;2.67;;
15181;SDS011;7692;50.602;8.692;2023-11-18T08:22:44;2.50;;;2.50;;
15181;SDS011;7692;50.602;8.692;2023-11-18T08:25:12;2.50;;;2.50;;
15181;SDS011;7692;50.602;8.692;2023-11-18T08:27:41;2.60;;;2.60;;
15181;SDS011;7692;50.602;8.692;2023-11-18T08:30:13;2.50;;;2.50;;
15181;SDS011;7692;50.602;8.692;2023-11-18T08:32:44;2.50;;;2.50;;
15181;SDS011;7692;50.602;8.692;2023-11-18T08:35:14;2.60;;;2.60;;
15181;SDS011;7692;50.602;8.692;2023-11-18T08:37:44;2.40;;;2.40;;
15181;SDS011;7692;50.602;8.692;2023-11-18T08:40:14;2.40;;;2.40;;
15181;SDS011;7692;50.602;8.692;2023-11-18T08:42:43;2.40;;;2.40;;
15181;SDS011;7692;50.602;8.692;2023-11-18T08:45:18;2.40;;;2.40;;
15181;SDS011;7692;50.602;8.692;2023-11-18T08:47:48;2.40;;;2.40;;
15181;SDS011;7692;50.602;8.692;2023-11-18T08:50:19;2.47;;;2.47;;
15181;SDS011;7692;50.602;8.692;2023-11-18T08:52:50;2.60;;;2.60;;
15181;SDS011;7692;50.602;8.692;2023-11-18T08:55:25;2.50;;;2.50;;
15181;SDS011;7692;50.602;8.692;2023-11-18T08:58:06;2.60;;;2.60;;
15181;SDS011;7692;50.602;8.692;2023-11-18T09:00:48;2.70;;;2.70;;
15181;SDS011;7692;50.602;8.692;2023-11-18T09:03:20;2.40;;;2.40;;
15181;SDS011;7692;50.602;8.692;2023-11-18T09:05:56;2.50;;;2.50;;
15181;SDS011;7692;50.602;8.692;2023-11-18T09:08:25;2.50;;;2.50;;
15181;SDS011;7692;50.602;8.692;2023-11-18T09:10:55;2.50;;;2.50;;
15181;SDS011;7692;50.602;8.692;2023-11-18T09:13:25;2.50;;;2.50;;
15181;SDS011;7692;50.602;8.692;2023-11-18T09:15:58;2.40;;;2.40;;
15181;SDS011;7692;50.602;8.692;2023-11-18T09:18:26;2.40;;;2.40;;
15181;SDS011;7692;50.602;8.692;2023-11-18T09:20:56;2.43;;;2.43;;
15181;SDS011;7692;50.602;8.692;2023-11-18T09:23:28;2.50;;;2.50;;
15181;SDS011;7692;50.602;8.692;2023-11-18T09:25:58;2.40;;;2.40;;
15181;SDS011;7692;50.602;8.692;2023-11-18T09:28:27;2.37;;;2.37;;
15181;SDS011;7692;50.602;8.692;2023-11-18T09:30:57;2.43;;;2.43;;
15181;SDS011;7692;50.602;8.692;2023-11-18T09:33:29;2.40;;;2.40;;
15181;SDS011;7692;50.602;8.692;2023-11-18T09:36:00;2.47;;;2.47;;
15181;SDS011;7692;50.602;8.692;2023-11-18T09:38:30;2.40;;;2.40;;
15181;SDS011;7692;50.602;8.692;2023-11-18T09:40:59;2.50;;;2.50;;
15181;SDS011;7692;50.602;8.692;2023-11-18T09:43:29;2.40;;;2.40;;
15181;SDS011;7692;50.602;8.692;2023-11-18T09:46:05;2.33;;;2.33;;
15181;SDS011;7692;50.602;8.692;2023-11-18T09:48:41;2.30;;;2.30;;
15181;SDS011;7692;50.602;8.692;2023-11-18T09:51:14;2.50;;;2.50;;
15181;SDS011;7692;50.602;8.692;2023-11-18T09:53:45;2.40;;;2.40;;
15181;SDS011;7692;50.602;8.692;2023-11-18T09:56:16;2.40;;;2.40;;
15181;SDS011;7692;50.602;8.692;2023-11-18T09:58:57;2.30;;;2.30;;
15181;SDS011;7692;50.602;8.692;2023-11-18T10:01:27;2.40;;;2.40;;
15181;SDS011;7692;50.602;8.692;2023-11-18T10:03:59;2.30;;;2.30;;
15181;SDS011;7692;50.602;8.692;2023-11-18T10:06:33;2.30;;;2.30;;
15181;SDS011;7692;50.602;8.692;2023-11-18T10:09:03;2.50;;;2.50;;
15181;SDS011;7692;50.602;8.692;2023-11-18T10:11:42;2.30;;;2.30;;
15181;SDS011;7692;50.602;8.692;2023-11-18T10:14:13;2.30;;;2.30;;
15181;SDS011;7692;50.602;8.692;2023-11-18T10:16:44;2.40;;;2.40;;
15181;SDS011;7692;50.602;8.692;2023-11-18T10:19:14;2.30;;;2.30;;
15181;SDS011;7692;50.602;8.692;2023-11-18T10:21:45;2.20;;;2.20;;
15181;SDS011;7692;50.602;8.692;2023-11-18T10:24:16;2.30;;;2.30;;
15181;SDS011;7692;50.602;8.692;2023-11-18T10:26:54;2.30;;;2.30;;
15181;SDS011;7692;50.602;8.692;2023-11-18T10:29:23;2.30;;;2.30;;
15181;SDS011;7692;50.602;8.692;2023-11-18T10:32:06;2.37;;;2.37;;
15181;SDS011;7692;50.602;8.692;2023-11-18T10:34:36;2.30;;;2.30;;
15181;SDS011;7692;50.602;8.692;2023-11-18T10:37:06;2.27;;;2.27;;
15181;SDS011;7692;50.602;8.692;2023-11-18T10:39:37;2.33;;;2.33;;
15181;SDS011;7692;50.602;8.692;2023-11-18T10:42:06;2.30;;;2.30;;
15181;SDS011;7692;50.602;8.692;2023-11-18T10:44:35;2.40;;;2.40;;
15181;SDS011;7692;50.602;8.692;2023-11-18T10:47:03;2.40;;;2.40;;
15181;SDS011;7692;50.602;8.692;2023-11-18T10:49:35;2.30;;;2.30;;
15181;SDS011;7692;50.602;8.692;2023-11-18T10:52:05;2.27;;;2.27;;
15181;SDS011;7692;50.602;8.692;2023-11-18T10:54:35;2.20;;;2.20;;
15181;SDS011;7692;50.602;8.692;2023-11-18T10:57:04;2.20;;;2.20;;
15181;SDS011;7692;50.602;8.692;2023-11-18T10:59:35;2.23;;;2.23;;
15181;SDS011;7692;50.602;8.692;2023-11-18T11:02:17;2.30;;;2.30;;
15181;SDS011;7692;50.602;8.692;2023-11-18T11:04:51;2.30;;;2.30;;
15181;SDS011;7692;50.602;8.692;2023-11-18T11:07:20;2.17;;;2.17;;
15181;SDS011;7692;50.602;8.692;2023-11-18T11:09:50;2.20;;;2.20;;
15181;SDS011;7692;50.602;8.692;2023-11-18T11:12:23;2.20;;;2.20;;
15181;SDS011;7692;50.602;8.692;2023-11-18T11:14:55;2.27;;;2.27;;
15181;SDS011;7692;50.602;8.692;2023-11-18T11:17:27;2.30;;;2.30;;
15181;SDS011;7692;50.602;8.692;2023-11-18T11:20:02;2.20;;;2.20;;
15181;SDS011;7692;50.602;8.692;2023-11-18T11:22:46;2.30;;;2.30;;
15181;SDS011;7692;50.602;8.692;2023-11-18T11:25:19;2.20;;;2.20;;
15181;SDS011;7692;50.602;8.692;2023-11-18T11:28:03;2.20;;;2.20;;
15181;SDS011;7692;50.602;8.692;2023-11-18T11:30:38;2.40;;;2.40;;
15181;SDS011;7692;50.602;8.692;2023-11-18T11:33:18;2.20;;;2.20;;
15181;SDS011;7692;50.602;8.692;2023-11-18T11:35:56;2.37;;;2.37;;
15181;SDS011;7692;50.602;8.692;2023-11-18T11:38:28;2.20;;;2.20;;
15181;SDS011;7692;50.602;8.692;2023-11-18T11:40:57;2.10;;;2.10;;
15181;SDS011;7692;50.602;8.692;2023-11-18T11:43:28;2.23;;;2.23;;
15181;SDS011;7692;50.602;8.692;2023-11-18T11:45:57;2.17;;;2.17;;
15181;SDS011;7692;50.602;8.692;2023-11-18T11:48:25;2.20;;;2.20;;
15181;SDS011;7692;50.602;8.692;2023-11-18T11:51:02;2.23;;;2.23;;
15181;SDS011;7692;50.602;8.692;2023-11-18T11:53:42;2.10;;;2.10;;
15181;SDS011;7692;50.602;8.692;2023-11-18T11:56:15;1.90;;;1.90;;
15181;SDS011;7692;50.602;8.692;2023-11-18T11:58:47;2.10;;;2.10;;
15181;SDS011;7692;50.602;8.692;2023-11-18T12:01:21;1.90;;;1.90;;
15181;SDS011;7692;50.602;8.692;2023-11-18T12:03:56;2.13;;;2.13;;
15181;SDS011;7692;50.602;8.692;2023-11-18T12:06:29;2.00;;;2.00;;
15181;SDS011;7692;50.602;8.692;2023-11-18T12:08:57;2.20;;;2.20;;
15181;SDS011;7692;50.602;8.692;2023-11-18T12:11:26;2.10;;;2.10;;
15181;SDS011;7692;50.602;8.692;2023-11-18T12:14:00;2.20;;;2.20;;
15181;SDS011;7692;50.602;8.692;2023-11-18T12:19:33;2.10;;;2.10;;
15181;SDS011;7692;50.602;8.692;2023-11-18T12:22:15;2.10;;;2.10;;
15181;SDS011;7692;50.602;8.692;2023-11-18T12:27:57;2.10;;;2.10;;
15181;SDS011;7692;50.602;8.692;2023-11-18T12:30:37;2.10;;;2.10;;
15181;SDS011;7692;50.602;8.692;2023-11-18T12:33:10;2.00;;;2.00;;
15181;SDS011;7692;50.602;8.692;2023-11-18T12:35:57;2.07;;;2.07;;
15181;SDS011;7692;50.602;8.692;2023-11-18T12:42:01;2.00;;;2.00;;
15181;SDS011;7692;50.602;8.692;2023-11-18T12:44:36;2.00;;;2.00;;
15181;SDS011;7692;50.602;8.692;2023-11-18T12:47:07;2.00;;;2.00;;
15181;SDS011;7692;50.602;8.692;2023-11-18T12:49:45;2.10;;;2.10;;
15181;SDS011;7692;50.602;8.692;2023-11-18T12:52:20;2.00;;;2.00;;
15181;SDS011;7692;50.602;8.692;2023-11-18T12:54:51;1.70;;;1.70;;
15181;SDS011;7692;50.602;8.692;2023-11-18T12:57:26;1.90;;;1.90;;
15181;SDS011;7692;50.602;8.692;2023-11-18T12:59:58;1.70;;;1.70;;
15181;SDS011;7692;50.602;8.692;2023-11-18T13:02:31;2.00;;;2.00;;
15181;SDS011;7692;50.602;8.692;2023-11-18T13:05:03;2.00;;;2.00;;
15181;SDS011;7692;50.602;8.692;2023-11-18T13:07:35;2.00;;;2.00;;
15181;SDS011;7692;50.602;8.692;2023-11-18T13:10:06;2.00;;;2.00;;
15181;SDS011;7692;50.602;8.692;2023-11-18T13:12:35;2.00;;;2.00;;
15181;SDS011;7692;50.602;8.692;2023-11-18T13:15:03;1.97;;;1.97;;
15181;SDS011;7692;50.602;8.692;2023-11-18T13:17:34;1.73;;;1.73;;
15181;SDS011;7692;50.602;8.692;2023-11-18T13:20:10;1.70;;;1.70;;
15181;SDS011;7692;50.602;8.692;2023-11-18T13:22:41;1.90;;;1.90;;
15181;SDS011;7692;50.602;8.692;2023-11-18T13:25:15;1.80;;;1.80;;
15181;SDS011;7692;50.602;8.692;2023-11-18T13:27:44;2.00;;;2.00;;
15181;SDS011;7692;50.602;8.692;2023-11-18T13:30:13;1.90;;;1.90;;
15181;SDS011;7692;50.602;8.692;2023-11-18T13:32:43;1.80;;;1.80;;
15181;SDS011;7692;50.602;8.692;2023-11-18T13:35:12;1.63;;;1.63;;
15181;SDS011;7692;50.602;8.692;2023-11-18T13:37:48;1.70;;;1.70;;
15181;SDS011;7692;50.602;8.692;2023-11-18T13:40:18;2.00;;;2.00;;
15181;SDS011;7692;50.602;8.692;2023-11-18T13:42:46;1.90;;;1.90;;
15181;SDS011;7692;50.602;8.692;2023-11-18T13:45:14;2.20;;;2.20;;
15181;SDS011;7692;50.602;8.692;2023-11-18T13:48:01;2.00;;;2.00;;
15181;SDS011;7692;50.602;8.692;2023-11-18T13:50:30;1.70;;;1.70;;
15181;SDS011;7692;50.602;8.692;2023-11-18T13:53:01;2.00;;;2.00;;
15181;SDS011;7692;50.602;8.692;2023-11-18T13:55:31;1.77;;;1.77;;
15181;SDS011;7692;50.602;8.692;2023-11-18T13:57:59;1.70;;;1.70;;
15181;SDS011;7692;50.602;8.692;2023-11-18T14:00:27;1.80;;;1.80;;
15181;SDS011;7692;50.602;8.692;2023-11-18T14:02:58;1.97;;;1.97;;
15181;SDS011;7692;50.602;8.692;2023-11-18T14:05:26;1.90;;;1.90;;
15181;SDS011;7692;50.602;8.692;2023-11-18T14:07:55;1.60;;;1.60;;
15181;SDS011;7692;50.602;8.692;2023-11-18T14:10:26;1.50;;;1.50;;
15181;SDS011;7692;50.602;8.692;2023-11-18T14:13:02;2.10;;;2.10;;
15181;SDS011;7692;50.602;8.692;2023-11-18T14:15:32;2.03;;;2.03;;
15181;SDS011;7692;50.602;8.692;2023-11-18T14:18:02;1.80;;;1.80;;
15181;SDS011;7692;50.602;8.692;2023-11-18T14:20:30;1.50;;;1.50;;
15181;SDS011;7692;50.602;8.692;2023-11-18T14:22:58;1.70;;;1.70;;
15181;SDS011;7692;50.602;8.692;2023-11-18T14:25:26;1.60;;;1.60;;
15181;SDS011;7692;50.602;8.692;2023-11-18T14:27:55;1.60;;;1.60;;
15181;SDS011;7692;50.602;8.692;2023-11-18T14:30:25;2.10;;;2.10;;
15181;SDS011;7692;50.602;8.692;2023-11-18T14:32:54;1.80;;;1.80;;
15181;SDS011;7692;50.602;8.692;2023-11-18T14:35:22;1.70;;;1.70;;
15181;SDS011;7692;50.602;8.692;2023-11-18T14:37:58;1.70;;;1.70;;
15181;SDS011;7692;50.602;8.692;2023-11-18T14:40:27;1.70;;;1.70;;
15181;SDS011;7692;50.602;8.692;2023-11-18T14:42:56;1.70;;;1.70;;
15181;SDS011;7692;50.602;8.692;2023-11-18T14:45:26;1.70;;;1.70;;
15181;SDS011;7692;50.602;8.692;2023-11-18T14:47:54;1.60;;;1.60;;
15181;SDS011;7692;50.602;8.692;2023-11-18T14:50:22;1.70;;;1.70;;
15181;SDS011;7692;50.602;8.692;2023-11-18T14:52:53;1.60;;;1.60;;
15181;SDS011;7692;50.602;8.692;2023-11-18T14:55:26;1.60;;;1.60;;
15181;SDS011;7692;50.602;8.692;2023-11-18T14:57:55;1.60;;;1.60;;
15181;SDS011;7692;50.602;8.692;2023-11-18T15:00:25;1.80;;;1.80;;
15181;SDS011;7692;50.602;8.692;2023-11-18T15:02:58;1.60;;;1.60;;
15181;SDS011;7692;50.602;8.692;2023-11-18T15:05:27;1.60;;;1.60;;
15181;SDS011;7692;50.602;8.692;2023-11-18T15:07:57;2.10;;;2.10;;
15181;SDS011;7692;50.602;8.692;2023-11-18T15:10:27;1.60;;;1.60;;
15181;SDS011;7692;50.602;8.692;2023-11-18T15:12:56;1.70;;;1.70;;
15181;SDS011;7692;50.602;8.692;2023-11-18T15:15:29;1.60;;;1.60;;
15181;SDS011;7692;50.602;8.692;2023-11-18T15:18:00;1.70;;;1.70;;
15181;SDS011;7692;50.602;8.692;2023-11-18T15:20:31;1.50;;;1.50;;
15181;SDS011;7692;50.602;8.692;2023-11-18T15:23:00;1.60;;;1.60;;
15181;SDS011;7692;50.602;8.692;2023-11-18T15:25:29;1.70;;;1.70;;
15181;SDS011;7692;50.602;8.692;2023-11-18T15:27:57;1.60;;;1.60;;
15181;SDS011;7692;50.602;8.692;2023-11-18T15:30:26;1.60;;;1.60;;